LSGS Airport Information

Runway Information
Runway 07 Length 0 ft width 0 ft
Elevation 1578 ft Threshold 0 ft Heading 0
Runway 25 Length 0 ft Width 0 ft
Elevation 1581 ft Threshold 0 ft Heading 0
Runway 07L Length 1820 ft width 98 ft
Elevation 1578 ft Threshold 0 ft Heading 73
Runway 25R Length 1820 ft Width 98 ft
Elevation 1581 ft Threshold 328 ft Heading 253
Runway 07R Length 6562 ft width 131 ft
Elevation 1580 ft Threshold 164 ft Heading 73
Runway 25L Length 6562 ft Width 131 ft
Elevation 1585 ft Threshold 164 ft Heading 253
Airport Frequencies
Type A/G Name SWISS MILI Frequency 134.275 MHZ
Type APP Name RADAR Frequency 126.825 MHZ
Type GND Name GND Frequency 121.7 MHZ
Type INFO Name INFO Frequency 122.35 MHZ
Type TWR Name TWR Frequency 118.275 MHZ
Airport Navaids
Type VOR-DME Name Montana Frequency 115850 KHZ
Type VOR-DME Name Sion Frequency 112150 KHZ
Airport Weather Information & NOTAM
ADDS - METARS form results

(1738 UTC 24 September 2018)
Data provider http://aviationweather.gov/metar/data/
 
METAR text: LSGS 241720Z 26013KT 9999 FEW080 15/06 Q1026
Conditions at: LSGS (SION (MIL/CIV/AU, CH) observed 1720 UTC 24 September 2018
Temperature: 15.0°C (59°F)
Dewpoint: 6.0°C (43°F) [RH = 55%]
Pressure (altimeter): 30.30 inches Hg (1026.0 mb)
Winds: from the W (260 degrees) at 15 MPH (13 knots; 6.7 m/s)
Visibility: 6 or more miles (10+ km)
Ceiling: at least 12,000 feet AGL
Clouds: few clouds at 8000 feet AGL
Weather: no significant weather observed at this time

METAR text: LSGS 241650Z 25015G25KT 9999 FEW080 16/06 Q1026
Conditions at: LSGS (SION (MIL/CIV/AU, CH) observed 1650 UTC 24 September 2018
Temperature: 16.0°C (61°F)
Dewpoint: 6.0°C (43°F) [RH = 51%]
Pressure (altimeter): 30.30 inches Hg (1026.0 mb)
Winds: from the WSW (250 degrees) at 17 MPH (15 knots; 7.7 m/s)
gusting to 29 MPH (25 knots; 12.9 m/s)
Visibility: 6 or more miles (10+ km)
Ceiling: at least 12,000 feet AGL
Clouds: few clouds at 8000 feet AGL
Weather: no significant weather observed at this time

Forecast for: LSGS (SION (MIL/CIV/AU, CH)
Text: TAF LSGS 241425Z 2415/2424 24016KT 9999 FEW070
Forecast period: 1500 to 1700 UTC 24 September 2018
Forecast type: FROM: standard forecast or significant change
Winds: from the WSW (240 degrees) at 18 MPH (16 knots; 8.2 m/s)
Visibility: 6 or more miles 10+ km)
Ceiling: at least 12,000 feet AGL
Clouds: few clouds at 7000 feet AGL
Weather: no significant weather forecast for this period
Text: BECMG 2417/2419 VRB03KT CAVOK
Forecast period: 1700 UTC 24 September 2018 to 0000 UTC 25 September 2018
Forecast type: BECOMING: Conditions expected to become as follows by 1900 UTC 24 September 2018
Winds: variable direction winds at 3 MPH (3 knots; 1.5 m/s)
Visibility: 6 or more miles 10+ km)
Ceiling: unknown
Clouds: missing
Weather: NSW  (no significant weather)